Time;durP1;ratioP1;P1;durP2;ratioP2;P2;SDS_P1;SDS_P2;PMS_P1;PMS_P2;Temp;Humidity;BMP_temperature;BMP_pressure;BME280_temperature;BME280_humidity;BME280_pressure;Samples;Min_cycle;Max_cycle;Signal;HPM_P1;HPM_P2
2021/01/21 00:00:47;;;;;;;28.00;17.80;;;;;;;;;;720663;190;920083;-67
2021/01/21 00:03:13;;;;;;;24.23;16.03;;;;;;;;;;730924;190;917163;-68
2021/01/21 00:05:39;;;;;;;24.37;15.55;;;;;;;;;;714437;190;916935;-67
2021/01/21 00:08:04;;;;;;;26.70;16.50;;;;;;;;;;726978;190;916456;-68
2021/01/21 00:10:30;;;;;;;35.40;18.00;;;;;;;;;;718436;190;3040439;-68
2021/01/21 00:12:56;;;;;;;27.67;17.03;;;;;;;;;;726192;190;915621;-69
2021/01/21 00:15:22;;;;;;;29.00;16.67;;;;;;;;;;718060;190;919423;-68
2021/01/21 00:17:48;;;;;;;21.57;13.13;;;;;;;;;;728159;190;922139;-68
2021/01/21 00:20:14;;;;;;;22.13;13.83;;;;;;;;;;732608;189;919644;-68
2021/01/21 00:22:40;;;;;;;20.40;12.60;;;;;;;;;;726910;190;919161;-69
2021/01/21 00:25:06;;;;;;;18.73;11.32;;;;;;;;;;726342;190;921007;-68
2021/01/21 00:27:32;;;;;;;20.60;11.73;;;;;;;;;;730346;189;919497;-68
2021/01/21 00:29:58;;;;;;;18.40;11.27;;;;;;;;;;727258;190;919010;-69
2021/01/21 00:32:24;;;;;;;17.80;10.77;;;;;;;;;;723324;190;920344;-69
2021/01/21 00:34:50;;;;;;;15.87;10.47;;;;;;;;;;725783;189;946293;-68
2021/01/21 00:37:15;;;;;;;20.90;11.17;;;;;;;;;;720659;190;918326;-69
2021/01/21 00:39:41;;;;;;;18.20;11.10;;;;;;;;;;728020;190;920858;-69
2021/01/21 00:42:08;;;;;;;16.00;9.95;;;;;;;;;;722310;191;919406;-67
2021/01/21 00:44:34;;;;;;;19.63;11.27;;;;;;;;;;730012;190;920473;-69
2021/01/21 00:47:00;;;;;;;17.87;10.73;;;;;;;;;;723537;189;919493;-67
2021/01/21 00:49:25;;;;;;;18.93;11.57;;;;;;;;;;725017;189;913596;-69
2021/01/21 00:51:51;;;;;;;17.80;11.73;;;;;;;;;;729462;188;912782;-67
2021/01/21 00:54:17;;;;;;;18.58;10.98;;;;;;;;;;723997;190;919073;-68
2021/01/21 00:56:43;;;;;;;25.30;11.90;;;;;;;;;;717510;190;2059090;-67
2021/01/21 00:59:09;;;;;;;15.87;10.07;;;;;;;;;;731401;190;918356;-69
2021/01/21 01:01:35;;;;;;;15.60;10.87;;;;;;;;;;735394;189;919329;-68
2021/01/21 01:04:00;;;;;;;12.30;8.67;;;;;;;;;;726154;190;935640;-68
2021/01/21 01:06:26;;;;;;;17.40;10.00;;;;;;;;;;728743;190;919719;-68
2021/01/21 01:08:52;;;;;;;18.13;10.50;;;;;;;;;;723943;190;919397;-67
2021/01/21 01:11:18;;;;;;;11.27;8.32;;;;;;;;;;725535;190;920187;-68
2021/01/21 01:13:44;;;;;;;14.40;9.20;;;;;;;;;;726735;191;917516;-67
2021/01/21 01:16:10;;;;;;;17.07;10.17;;;;;;;;;;730315;188;918440;-67
2021/01/21 01:18:36;;;;;;;15.63;9.07;;;;;;;;;;723568;190;919290;-67
2021/01/21 01:21:02;;;;;;;15.50;9.60;;;;;;;;;;721999;190;918220;-68
2021/01/21 01:23:30;;;;;;;15.77;10.40;;;;;;;;;;731607;190;939753;-68
2021/01/21 01:25:54;;;;;;;15.00;10.17;;;;;;;;;;728966;190;918451;-68
2021/01/21 01:28:20;;;;;;;13.23;10.00;;;;;;;;;;722858;190;920559;-68
2021/01/21 01:30:46;;;;;;;15.70;8.67;;;;;;;;;;731366;189;917198;-67
2021/01/21 01:33:12;;;;;;;14.40;9.80;;;;;;;;;;725237;189;920348;-67
2021/01/21 01:35:37;;;;;;;12.43;8.20;;;;;;;;;;730097;188;920552;-67
2021/01/21 01:38:06;;;;;;;16.53;8.93;;;;;;;;;;726801;190;919441;-66
2021/01/21 01:40:32;;;;;;;18.95;8.65;;;;;;;;;;725988;189;921158;-67
2021/01/21 01:42:58;;;;;;;14.20;8.43;;;;;;;;;;728089;190;919519;-67
2021/01/21 01:45:23;;;;;;;12.95;9.02;;;;;;;;;;725230;190;919507;-67
2021/01/21 01:47:49;;;;;;;13.10;8.83;;;;;;;;;;720523;191;919154;-67
2021/01/21 01:50:15;;;;;;;11.80;7.73;;;;;;;;;;724816;191;915317;-67
2021/01/21 01:52:41;;;;;;;14.47;8.07;;;;;;;;;;727949;189;1026585;-67
2021/01/21 01:55:08;;;;;;;14.13;8.00;;;;;;;;;;729728;189;914453;-67
2021/01/21 01:57:34;;;;;;;9.83;7.30;;;;;;;;;;731373;189;919299;-66
2021/01/21 01:59:59;;;;;;;12.70;7.77;;;;;;;;;;721802;188;918628;-68
2021/01/21 02:02:25;;;;;;;11.03;7.17;;;;;;;;;;727613;189;918416;-68
2021/01/21 02:04:51;;;;;;;14.27;7.60;;;;;;;;;;726271;191;1001125;-67
2021/01/21 02:07:17;;;;;;;8.30;6.85;;;;;;;;;;726917;190;920957;-68
2021/01/21 02:09:43;;;;;;;14.17;8.50;;;;;;;;;;721242;189;922248;-68
2021/01/21 02:12:25;;;;;;;11.77;8.50;;;;;;;;;;733003;188;918823;-68
2021/01/21 02:14:51;;;;;;;17.50;9.20;;;;;;;;;;723748;191;882392;-68
2021/01/21 02:17:18;;;;;;;15.87;9.17;;;;;;;;;;726081;190;918739;-68
2021/01/21 02:19:49;;;;;;;13.80;8.73;;;;;;;;;;726464;188;926844;-68
2021/01/21 02:22:21;;;;;;;10.53;7.97;;;;;;;;;;728891;188;919374;-69
2021/01/21 02:24:47;;;;;;;14.57;8.30;;;;;;;;;;720397;191;918202;-69
2021/01/21 02:27:13;;;;;;;15.13;8.20;;;;;;;;;;721757;190;1130715;-69
2021/01/21 02:29:39;;;;;;;12.63;9.00;;;;;;;;;;725868;190;918816;-68
2021/01/21 02:32:09;;;;;;;16.50;10.07;;;;;;;;;;726152;190;918807;-69
2021/01/21 02:34:40;;;;;;;13.90;8.37;;;;;;;;;;719181;192;920378;-70
2021/01/21 02:37:06;;;;;;;15.17;8.93;;;;;;;;;;723363;190;920146;-69
2021/01/21 02:39:32;;;;;;;13.53;8.13;;;;;;;;;;725855;190;918609;-70
2021/01/21 02:41:58;;;;;;;13.33;8.70;;;;;;;;;;730282;190;922998;-69
2021/01/21 02:44:24;;;;;;;20.03;9.10;;;;;;;;;;727101;190;918263;-71
2021/01/21 02:46:50;;;;;;;11.83;8.60;;;;;;;;;;723412;188;1270259;-71
2021/01/21 02:49:15;;;;;;;13.20;6.80;;;;;;;;;;729994;189;918970;-71
2021/01/21 02:51:41;;;;;;;14.67;7.83;;;;;;;;;;726992;188;918497;-71
2021/01/21 02:54:24;;;;;;;16.13;9.10;;;;;;;;;;728616;190;918750;-70
2021/01/21 02:56:50;;;;;;;12.10;7.10;;;;;;;;;;726828;190;918986;-71
2021/01/21 02:59:16;;;;;;;11.23;8.13;;;;;;;;;;728831;190;918521;-71
2021/01/21 03:01:41;;;;;;;12.43;7.90;;;;;;;;;;728953;190;919421;-72
2021/01/21 03:04:07;;;;;;;15.73;8.83;;;;;;;;;;727413;189;918772;-73
2021/01/21 03:06:34;;;;;;;14.73;8.27;;;;;;;;;;721449;190;964946;-72
2021/01/21 03:08:59;;;;;;;13.30;6.40;;;;;;;;;;731585;189;919322;-73
2021/01/21 03:11:25;;;;;;;12.63;7.07;;;;;;;;;;721372;190;918786;-73
2021/01/21 03:13:51;;;;;;;12.00;7.53;;;;;;;;;;721961;188;996264;-74
2021/01/21 03:16:17;;;;;;;9.60;7.13;;;;;;;;;;733988;190;926014;-74
2021/01/21 03:18:42;;;;;;;10.67;7.43;;;;;;;;;;722013;189;920299;-74
2021/01/21 03:21:08;;;;;;;13.97;6.67;;;;;;;;;;726015;190;918757;-74
2021/01/21 03:23:42;;;;;;;11.83;7.63;;;;;;;;;;719850;190;918329;-73
2021/01/21 03:26:01;;;;;;;13.93;7.67;;;;;;;;;;731119;190;918503;-74
2021/01/21 03:28:26;;;;;;;11.37;7.83;;;;;;;;;;723857;188;918484;-73
2021/01/21 03:30:52;;;;;;;11.20;8.10;;;;;;;;;;719877;190;915978;-74
2021/01/21 03:33:18;;;;;;;10.03;6.63;;;;;;;;;;728934;188;1194206;-74
2021/01/21 03:35:44;;;;;;;11.83;7.13;;;;;;;;;;723383;190;915481;-75
2021/01/21 03:38:10;;;;;;;9.73;7.00;;;;;;;;;;722090;190;915585;-73
2021/01/21 03:40:36;;;;;;;13.60;7.30;;;;;;;;;;736403;189;914771;-75
2021/01/21 03:43:02;;;;;;;16.57;7.70;;;;;;;;;;725691;189;939024;-74
2021/01/21 03:45:27;;;;;;;10.83;7.37;;;;;;;;;;722439;191;913867;-74
2021/01/21 03:47:53;;;;;;;14.10;8.73;;;;;;;;;;732614;190;914879;-74
2021/01/21 03:50:19;;;;;;;15.63;7.90;;;;;;;;;;726385;189;914706;-73
2021/01/21 03:52:45;;;;;;;14.55;9.57;;;;;;;;;;729289;189;915961;-74
2021/01/21 03:55:11;;;;;;;17.20;9.00;;;;;;;;;;718178;187;2994448;-73
2021/01/21 03:57:37;;;;;;;9.90;7.07;;;;;;;;;;721198;191;915898;-74
2021/01/21 04:00:03;;;;;;;11.97;7.37;;;;;;;;;;721689;190;915643;-73
2021/01/21 04:02:29;;;;;;;10.87;7.00;;;;;;;;;;725609;188;915760;-74
2021/01/21 04:04:55;;;;;;;13.47;8.50;;;;;;;;;;728348;190;915645;-74
2021/01/21 04:07:21;;;;;;;11.20;7.68;;;;;;;;;;728665;188;930779;-74
2021/01/21 04:09:46;;;;;;;13.10;8.73;;;;;;;;;;723393;189;921560;-75
2021/01/21 04:12:12;;;;;;;12.60;8.53;;;;;;;;;;729492;190;918997;-74
2021/01/21 04:14:38;;;;;;;15.87;7.40;;;;;;;;;;724623;188;918800;-74
2021/01/21 04:17:04;;;;;;;13.87;7.47;;;;;;;;;;726234;189;914526;-75
2021/01/21 04:19:30;;;;;;;11.10;6.70;;;;;;;;;;714770;189;919000;-74
2021/01/21 04:21:56;;;;;;;11.70;7.33;;;;;;;;;;729592;191;918409;-73
2021/01/21 04:24:22;;;;;;;13.13;6.80;;;;;;;;;;723892;189;926819;-73
2021/01/21 04:26:47;;;;;;;24.60;14.70;;;;;;;;;;725765;190;914094;-74
2021/01/21 04:29:13;;;;;;;12.00;8.23;;;;;;;;;;731657;190;812184;-75
2021/01/21 04:31:39;;;;;;;11.63;6.40;;;;;;;;;;723198;190;920945;-74
2021/01/21 04:34:05;;;;;;;11.77;5.80;;;;;;;;;;726327;190;919509;-73
2021/01/21 04:36:31;;;;;;;9.40;6.67;;;;;;;;;;729845;190;901076;-74
2021/01/21 04:38:57;;;;;;;12.70;7.37;;;;;;;;;;726243;190;936430;-75
2021/01/21 04:41:22;;;;;;;14.00;7.50;;;;;;;;;;721886;189;915566;-75
2021/01/21 04:43:48;;;;;;;11.00;6.82;;;;;;;;;;736491;190;864739;-75
2021/01/21 04:46:14;;;;;;;11.00;6.70;;;;;;;;;;725352;190;912077;-75
2021/01/21 04:48:40;;;;;;;18.63;6.37;;;;;;;;;;728682;190;921552;-75
2021/01/21 04:51:06;;;;;;;10.63;5.40;;;;;;;;;;722288;190;821357;-75
2021/01/21 04:53:32;;;;;;;10.17;6.80;;;;;;;;;;731281;190;708575;-77
2021/01/21 04:55:58;;;;;;;16.97;7.40;;;;;;;;;;727722;190;813345;-76
2021/01/21 04:58:25;;;;;;;11.57;6.37;;;;;;;;;;728605;190;911157;-76
2021/01/21 05:00:51;;;;;;;10.63;5.80;;;;;;;;;;728663;190;813833;-76
2021/01/21 05:03:17;;;;;;;11.33;5.87;;;;;;;;;;722883;189;711875;-77
2021/01/21 05:05:43;;;;;;;8.03;6.13;;;;;;;;;;724762;189;809259;-76
2021/01/21 05:08:09;;;;;;;11.10;6.65;;;;;;;;;;731581;188;804248;-76
2021/01/21 05:10:34;;;;;;;9.17;5.70;;;;;;;;;;730703;190;911217;-76
2021/01/21 05:13:00;;;;;;;8.30;6.00;;;;;;;;;;724889;189;811990;-75
2021/01/21 05:15:26;;;;;;;14.07;7.23;;;;;;;;;;713724;191;921767;-76
2021/01/21 05:17:52;;;;;;;7.37;5.28;;;;;;;;;;727814;191;904490;-75
2021/01/21 05:20:18;;;;;;;7.80;5.50;;;;;;;;;;727704;190;914739;-75
2021/01/21 05:22:44;;;;;;;11.50;6.47;;;;;;;;;;729081;190;915691;-75
2021/01/21 05:25:10;;;;;;;13.13;5.77;;;;;;;;;;735167;189;806518;-77
2021/01/21 05:27:36;;;;;;;14.97;5.83;;;;;;;;;;727981;189;877292;-77
2021/01/21 05:30:01;;;;;;;12.65;6.15;;;;;;;;;;729490;189;890596;-76
2021/01/21 05:32:27;;;;;;;12.50;6.03;;;;;;;;;;729381;189;912488;-76
2021/01/21 05:34:53;;;;;;;8.77;5.95;;;;;;;;;;726936;189;927835;-75
2021/01/21 05:37:20;;;;;;;10.70;6.43;;;;;;;;;;725390;190;912811;-75
2021/01/21 05:39:46;;;;;;;12.50;5.37;;;;;;;;;;727809;190;920418;-76
2021/01/21 05:42:13;;;;;;;9.20;4.90;;;;;;;;;;723189;190;891147;-76
2021/01/21 05:44:38;;;;;;;9.77;6.78;;;;;;;;;;724279;190;918265;-76
2021/01/21 05:47:04;;;;;;;10.93;6.33;;;;;;;;;;726974;191;917486;-73
2021/01/21 05:49:30;;;;;;;14.07;7.17;;;;;;;;;;729001;190;714442;-76
2021/01/21 05:51:56;;;;;;;14.27;7.83;;;;;;;;;;726739;190;821811;-75
2021/01/21 05:54:22;;;;;;;12.93;7.20;;;;;;;;;;724011;190;916272;-76
2021/01/21 05:56:48;;;;;;;10.50;6.10;;;;;;;;;;725272;190;919157;-75
2021/01/21 05:59:15;;;;;;;10.70;6.70;;;;;;;;;;726603;189;916995;-76
2021/01/21 06:01:41;;;;;;;10.23;5.77;;;;;;;;;;727576;189;919159;-75
2021/01/21 06:04:07;;;;;;;9.00;5.55;;;;;;;;;;726694;189;917684;-75
2021/01/21 06:06:33;;;;;;;10.53;5.73;;;;;;;;;;730190;191;920516;-75
2021/01/21 06:08:59;;;;;;;12.73;6.43;;;;;;;;;;721000;190;1274027;-76
2021/01/21 06:11:24;;;;;;;8.40;6.10;;;;;;;;;;728059;189;918578;-76
2021/01/21 06:13:51;;;;;;;12.43;6.10;;;;;;;;;;733244;190;920423;-74
2021/01/21 06:16:17;;;;;;;11.33;6.27;;;;;;;;;;728601;190;918263;-75
2021/01/21 06:18:43;;;;;;;6.33;4.90;;;;;;;;;;728738;190;921263;-74
2021/01/21 06:21:08;;;;;;;8.70;5.33;;;;;;;;;;724225;192;816286;-74
2021/01/21 06:23:34;;;;;;;10.90;5.53;;;;;;;;;;721280;190;817114;-75
2021/01/21 06:26:00;;;;;;;14.93;5.70;;;;;;;;;;723341;189;913175;-75
2021/01/21 06:28:26;;;;;;;11.80;6.03;;;;;;;;;;730007;189;919874;-76
2021/01/21 06:30:52;;;;;;;9.93;5.73;;;;;;;;;;726593;189;1066586;-74
2021/01/21 06:33:18;;;;;;;9.50;5.83;;;;;;;;;;724467;190;918442;-76
2021/01/21 06:35:43;;;;;;;10.73;6.07;;;;;;;;;;714209;189;913317;-77
2021/01/21 06:38:09;;;;;;;8.70;5.50;;;;;;;;;;733658;191;917411;-76
2021/01/21 06:40:35;;;;;;;8.05;6.20;;;;;;;;;;722186;189;815873;-75
2021/01/21 06:43:01;;;;;;;15.40;6.70;;;;;;;;;;725982;190;918668;-76
2021/01/21 06:45:27;;;;;;;9.73;6.50;;;;;;;;;;728590;189;816585;-76
2021/01/21 06:47:53;;;;;;;10.60;6.40;;;;;;;;;;726599;188;917847;-76
2021/01/21 06:50:18;;;;;;;11.13;6.50;;;;;;;;;;725451;189;1061322;-77
2021/01/21 06:52:45;;;;;;;10.63;6.00;;;;;;;;;;732627;188;918027;-74
2021/01/21 06:55:10;;;;;;;9.40;5.67;;;;;;;;;;728491;190;907837;-77
2021/01/21 06:57:43;;;;;;;17.70;5.73;;;;;;;;;;729819;188;631219;-76
2021/01/21 07:00:16;;;;;;;14.43;5.40;;;;;;;;;;726085;190;919936;-75
2021/01/21 07:02:42;;;;;;;12.40;6.00;;;;;;;;;;730522;190;918256;-76
2021/01/21 07:05:08;;;;;;;9.97;6.97;;;;;;;;;;727636;190;919042;-78
2021/01/21 07:07:49;;;;;;;12.93;5.07;;;;;;;;;;719066;190;822095;-77
2021/01/21 07:10:15;;;;;;;12.03;5.53;;;;;;;;;;728005;190;918687;-77
2021/01/21 07:12:41;;;;;;;13.00;6.17;;;;;;;;;;727290;188;815674;-77
2021/01/21 07:15:07;;;;;;;10.27;5.80;;;;;;;;;;728336;190;918372;-75
2021/01/21 07:17:34;;;;;;;11.83;5.37;;;;;;;;;;720392;190;817211;-76
2021/01/21 07:19:59;;;;;;;14.03;5.57;;;;;;;;;;725488;189;917212;-76
2021/01/21 07:22:25;;;;;;;9.57;5.37;;;;;;;;;;726162;190;916423;-77
2021/01/21 07:24:54;;;;;;;10.30;5.33;;;;;;;;;;726178;190;946019;-78
2021/01/21 07:27:19;;;;;;;6.73;4.90;;;;;;;;;;722527;190;916018;-78
2021/01/21 07:29:45;;;;;;;11.10;5.57;;;;;;;;;;730667;189;914813;-78
2021/01/21 07:32:11;;;;;;;14.10;4.90;;;;;;;;;;728681;189;913664;-78
2021/01/21 07:34:40;;;;;;;7.20;4.75;;;;;;;;;;726306;190;914501;-77
2021/01/21 07:37:10;;;;;;;9.07;5.32;;;;;;;;;;727666;188;916552;-77
2021/01/21 07:39:51;;;;;;;12.20;5.20;;;;;;;;;;732267;189;914767;-77
2021/01/21 07:42:17;;;;;;;8.57;5.50;;;;;;;;;;728671;191;813955;-78
2021/01/21 07:44:49;;;;;;;10.13;5.90;;;;;;;;;;726759;189;915990;-77
2021/01/21 07:47:21;;;;;;;12.80;5.13;;;;;;;;;;720501;190;915282;-78
2021/01/21 07:49:47;;;;;;;10.40;6.37;;;;;;;;;;725807;190;915364;-78
2021/01/21 07:52:12;;;;;;;8.63;6.13;;;;;;;;;;733675;190;812684;-77
2021/01/21 07:54:43;;;;;;;9.17;5.17;;;;;;;;;;721525;190;915113;-77
2021/01/21 07:57:09;;;;;;;7.13;4.80;;;;;;;;;;725973;190;923381;-78
2021/01/21 07:59:40;;;;;;;11.33;6.23;;;;;;;;;;721852;189;1273208;-77
2021/01/21 08:02:06;;;;;;;9.43;6.07;;;;;;;;;;734924;189;816293;-76
2021/01/21 08:04:32;;;;;;;10.33;5.30;;;;;;;;;;725830;190;914368;-77
2021/01/21 08:06:59;;;;;;;8.93;5.17;;;;;;;;;;718133;190;889919;-77
2021/01/21 08:09:24;;;;;;;9.57;5.77;;;;;;;;;;731114;190;918078;-77
2021/01/21 08:11:51;;;;;;;10.23;5.30;;;;;;;;;;724492;188;912122;-77
2021/01/21 08:14:17;;;;;;;13.30;6.17;;;;;;;;;;721239;188;910791;-77
2021/01/21 08:16:43;;;;;;;19.67;11.90;;;;;;;;;;727415;190;917332;-76
2021/01/21 08:19:08;;;;;;;18.97;7.40;;;;;;;;;;729967;191;893950;-77
2021/01/21 08:21:34;;;;;;;11.20;5.60;;;;;;;;;;725225;191;918451;-77
2021/01/21 08:24:01;;;;;;;9.23;5.77;;;;;;;;;;724855;190;920931;-77
2021/01/21 08:26:30;;;;;;;8.93;5.63;;;;;;;;;;733882;189;917192;-77
2021/01/21 08:28:57;;;;;;;10.30;5.70;;;;;;;;;;724511;189;919029;-76
2021/01/21 08:31:24;;;;;;;9.40;5.50;;;;;;;;;;726951;190;811974;-76
2021/01/21 08:33:50;;;;;;;8.47;5.53;;;;;;;;;;727373;188;913786;-76
2021/01/21 08:36:16;;;;;;;12.07;5.77;;;;;;;;;;722619;190;906893;-76
2021/01/21 08:38:42;;;;;;;9.93;5.17;;;;;;;;;;728564;189;1013909;-75
2021/01/21 08:41:07;;;;;;;9.00;4.93;;;;;;;;;;724862;188;915570;-75
2021/01/21 08:43:33;;;;;;;6.73;4.37;;;;;;;;;;735033;190;808660;-76
2021/01/21 08:45:59;;;;;;;10.30;5.07;;;;;;;;;;722778;187;1009279;-76
2021/01/21 08:48:25;;;;;;;7.27;4.10;;;;;;;;;;729555;189;920873;-75
2021/01/21 08:50:50;;;;;;;7.60;4.50;;;;;;;;;;730756;190;918780;-75
2021/01/21 08:53:19;;;;;;;7.90;4.20;;;;;;;;;;713794;192;1029143;-73
2021/01/21 08:55:45;;;;;;;5.83;3.73;;;;;;;;;;721857;188;1018382;-75
2021/01/21 08:58:12;;;;;;;8.70;4.13;;;;;;;;;;730681;190;916272;-75
2021/01/21 09:00:38;;;;;;;5.20;3.83;;;;;;;;;;728175;190;715173;-74
2021/01/21 09:03:03;;;;;;;7.73;4.47;;;;;;;;;;727208;189;917626;-75
2021/01/21 09:05:29;;;;;;;10.90;5.20;;;;;;;;;;723052;189;1114973;-75
2021/01/21 09:08:02;;;;;;;8.83;4.00;;;;;;;;;;733209;190;923403;-75
2021/01/21 09:10:28;;;;;;;6.20;4.00;;;;;;;;;;726427;188;914199;-75
2021/01/21 09:12:59;;;;;;;8.30;4.20;;;;;;;;;;723593;189;911641;-75
2021/01/21 09:15:25;;;;;;;9.93;4.20;;;;;;;;;;729161;190;913702;-76
2021/01/21 09:17:51;;;;;;;8.10;4.10;;;;;;;;;;728816;189;912051;-74
2021/01/21 09:20:19;;;;;;;6.00;3.47;;;;;;;;;;724449;190;917912;-74
2021/01/21 09:22:46;;;;;;;9.50;4.40;;;;;;;;;;724555;189;918725;-73
2021/01/21 09:25:11;;;;;;;10.30;3.77;;;;;;;;;;734301;190;816501;-74
2021/01/21 09:27:36;;;;;;;9.00;3.67;;;;;;;;;;722678;190;1075969;-74
2021/01/21 09:30:03;;;;;;;5.90;4.30;;;;;;;;;;725691;189;918335;-73
2021/01/21 09:32:29;;;;;;;4.50;2.90;;;;;;;;;;717009;188;916915;-73
2021/01/21 09:34:56;;;;;;;7.37;5.10;;;;;;;;;;730473;190;917357;-73
2021/01/21 09:37:22;;;;;;;6.57;4.27;;;;;;;;;;725036;188;918590;-74
2021/01/21 09:39:47;;;;;;;6.00;3.73;;;;;;;;;;725199;190;918947;-74
2021/01/21 09:42:13;;;;;;;8.17;4.87;;;;;;;;;;731208;190;919035;-74
2021/01/21 09:44:39;;;;;;;8.03;4.20;;;;;;;;;;721987;190;918793;-74
2021/01/21 09:47:05;;;;;;;6.67;3.97;;;;;;;;;;725920;190;986458;-76
2021/01/21 09:49:31;;;;;;;9.43;3.80;;;;;;;;;;730679;189;988233;-75
2021/01/21 09:51:57;;;;;;;11.23;3.60;;;;;;;;;;730328;189;917594;-75
2021/01/21 09:54:22;;;;;;;5.93;3.80;;;;;;;;;;726455;189;913494;-74
2021/01/21 09:56:51;;;;;;;13.50;4.77;;;;;;;;;;727561;190;918981;-75
2021/01/21 09:59:14;;;;;;;7.87;4.37;;;;;;;;;;724591;190;920376;-74
2021/01/21 10:01:40;;;;;;;9.20;3.87;;;;;;;;;;712157;191;918644;-74
2021/01/21 10:04:06;;;;;;;5.07;3.73;;;;;;;;;;729997;190;937998;-74
2021/01/21 10:06:32;;;;;;;9.40;3.97;;;;;;;;;;728383;190;899653;-74
2021/01/21 10:08:58;;;;;;;5.80;4.00;;;;;;;;;;725491;189;918546;-74
2021/01/21 10:11:23;;;;;;;7.83;4.57;;;;;;;;;;721774;189;1455867;-74
2021/01/21 10:13:49;;;;;;;6.33;4.53;;;;;;;;;;729180;189;918916;-74
2021/01/21 10:16:15;;;;;;;6.67;3.80;;;;;;;;;;725443;189;918740;-73
2021/01/21 10:18:41;;;;;;;9.80;4.77;;;;;;;;;;729414;188;917963;-73
2021/01/21 10:21:07;;;;;;;6.33;4.40;;;;;;;;;;730849;189;814477;-74
2021/01/21 10:23:33;;;;;;;9.87;4.97;;;;;;;;;;723918;189;918564;-74
2021/01/21 10:25:59;;;;;;;11.83;4.20;;;;;;;;;;724270;189;919130;-73
2021/01/21 10:28:25;;;;;;;10.75;4.40;;;;;;;;;;728371;190;918133;-73
2021/01/21 10:30:51;;;;;;;9.07;5.90;;;;;;;;;;730948;189;815583;-74
2021/01/21 10:33:16;;;;;;;5.00;4.03;;;;;;;;;;726491;190;922505;-73
2021/01/21 10:35:42;;;;;;;9.53;5.83;;;;;;;;;;723874;190;901732;-74
2021/01/21 10:38:08;;;;;;;7.10;4.47;;;;;;;;;;731692;189;918951;-74
2021/01/21 10:40:34;;;;;;;10.17;4.70;;;;;;;;;;726192;190;918998;-73
2021/01/21 10:43:00;;;;;;;6.00;4.35;;;;;;;;;;725081;190;921866;-73
2021/01/21 10:45:26;;;;;;;7.23;4.50;;;;;;;;;;731579;190;915743;-73
2021/01/21 10:47:52;;;;;;;7.90;5.43;;;;;;;;;;723034;190;918825;-73
2021/01/21 10:50:17;;;;;;;8.20;5.50;;;;;;;;;;725852;189;923619;-72
2021/01/21 10:52:43;;;;;;;14.27;6.77;;;;;;;;;;725686;190;918774;-73
2021/01/21 10:55:10;;;;;;;15.17;8.17;;;;;;;;;;731091;189;627541;-72
2021/01/21 10:57:35;;;;;;;16.97;7.83;;;;;;;;;;727211;188;644602;-72
2021/01/21 11:00:01;;;;;;;10.10;6.03;;;;;;;;;;737242;189;629785;-71
2021/01/21 11:02:27;;;;;;;10.33;4.33;;;;;;;;;;733722;188;633297;-73
2021/01/21 11:04:53;;;;;;;6.20;4.30;;;;;;;;;;733294;187;632871;-72
2021/01/21 11:07:19;;;;;;;6.45;3.87;;;;;;;;;;728702;189;816165;-70
2021/01/21 11:09:45;;;;;;;7.23;3.90;;;;;;;;;;732639;190;918676;-72
2021/01/21 11:12:11;;;;;;;7.23;4.40;;;;;;;;;;722591;189;917785;-72
2021/01/21 11:14:37;;;;;;;9.80;4.97;;;;;;;;;;727852;190;918268;-71
2021/01/21 11:17:04;;;;;;;7.27;4.20;;;;;;;;;;726224;190;918796;-71
2021/01/21 11:19:30;;;;;;;7.80;3.57;;;;;;;;;;726223;190;916445;-71
2021/01/21 11:21:56;;;;;;;7.27;4.23;;;;;;;;;;729619;189;918295;-72
2021/01/21 11:24:22;;;;;;;5.93;3.78;;;;;;;;;;728981;190;917518;-70
2021/01/21 11:26:48;;;;;;;6.97;3.60;;;;;;;;;;728429;191;918434;-71
2021/01/21 11:29:14;;;;;;;7.53;4.83;;;;;;;;;;725217;190;918782;-72
2021/01/21 11:31:39;;;;;;;5.97;3.47;;;;;;;;;;725321;190;918368;-72
2021/01/21 11:34:05;;;;;;;7.03;4.13;;;;;;;;;;727717;189;919157;-71
2021/01/21 11:36:31;;;;;;;8.90;3.67;;;;;;;;;;725955;188;918127;-71
2021/01/21 11:38:57;;;;;;;4.93;3.15;;;;;;;;;;721414;190;1423484;-70
2021/01/21 11:41:23;;;;;;;10.53;4.10;;;;;;;;;;730405;190;918683;-71
2021/01/21 11:43:49;;;;;;;8.47;3.60;;;;;;;;;;720856;190;919151;-71
2021/01/21 11:46:14;;;;;;;11.33;4.20;;;;;;;;;;725469;190;933349;-70
2021/01/21 11:48:40;;;;;;;5.60;4.12;;;;;;;;;;727450;190;918956;-71
2021/01/21 11:51:06;;;;;;;4.60;3.70;;;;;;;;;;725951;189;919242;-70
2021/01/21 11:53:32;;;;;;;8.18;4.15;;;;;;;;;;725703;189;919031;-70
2021/01/21 11:55:58;;;;;;;4.50;3.40;;;;;;;;;;725326;190;927348;-70
2021/01/21 11:58:24;;;;;;;5.40;3.40;;;;;;;;;;729640;190;919300;-70
2021/01/21 12:00:50;;;;;;;4.60;3.60;;;;;;;;;;721587;190;1292807;-70
2021/01/21 12:03:16;;;;;;;5.40;3.60;;;;;;;;;;724293;190;919443;-70
2021/01/21 12:05:43;;;;;;;7.93;3.43;;;;;;;;;;729830;190;917950;-70
2021/01/21 12:08:08;;;;;;;5.47;3.70;;;;;;;;;;723240;190;1012611;-70
2021/01/21 12:10:34;;;;;;;6.80;3.42;;;;;;;;;;724761;189;1021069;-70
2021/01/21 12:13:00;;;;;;;8.00;4.33;;;;;;;;;;733415;189;918883;-70
2021/01/21 12:15:25;;;;;;;5.07;3.13;;;;;;;;;;728457;187;1021149;-70
2021/01/21 12:17:51;;;;;;;9.00;3.33;;;;;;;;;;726542;188;918255;-70
2021/01/21 12:20:18;;;;;;;5.90;3.83;;;;;;;;;;729513;189;918125;-70
2021/01/21 12:22:43;;;;;;;13.43;4.33;;;;;;;;;;730148;190;984430;-71
2021/01/21 12:25:10;;;;;;;6.80;4.07;;;;;;;;;;722631;190;919040;-71
2021/01/21 12:27:36;;;;;;;7.53;3.87;;;;;;;;;;725369;189;919744;-70
2021/01/21 12:30:01;;;;;;;7.73;4.63;;;;;;;;;;728511;190;911776;-70
2021/01/21 12:32:27;;;;;;;7.77;4.13;;;;;;;;;;726288;189;916930;-70
2021/01/21 12:34:53;;;;;;;12.67;3.67;;;;;;;;;;727231;189;912943;-70
2021/01/21 12:37:19;;;;;;;4.70;3.33;;;;;;;;;;736054;187;915697;-69
2021/01/21 12:39:45;;;;;;;7.97;3.73;;;;;;;;;;736914;185;916696;-70
2021/01/21 12:42:11;;;;;;;11.80;3.80;;;;;;;;;;735388;185;914932;-70
2021/01/21 12:44:36;;;;;;;5.60;3.20;;;;;;;;;;741363;188;918671;-70
2021/01/21 12:47:02;;;;;;;4.33;3.10;;;;;;;;;;734676;187;1031529;-70
2021/01/21 12:49:28;;;;;;;6.67;3.67;;;;;;;;;;736825;188;918964;-69
2021/01/21 12:51:54;;;;;;;9.70;3.97;;;;;;;;;;732587;188;1021911;-69
2021/01/21 12:54:20;;;;;;;5.47;4.27;;;;;;;;;;741931;188;919707;-69
2021/01/21 12:56:46;;;;;;;6.03;4.27;;;;;;;;;;720110;192;919848;-69
2021/01/21 12:59:12;;;;;;;5.72;3.80;;;;;;;;;;721876;192;919314;-68
2021/01/21 13:01:37;;;;;;;6.03;4.20;;;;;;;;;;722056;194;919014;-69
2021/01/21 13:04:03;;;;;;;5.90;3.93;;;;;;;;;;732723;190;919348;-69
2021/01/21 13:06:29;;;;;;;8.47;4.73;;;;;;;;;;704821;194;1810456;-69
2021/01/21 13:08:55;;;;;;;6.53;4.07;;;;;;;;;;742920;188;920417;-69
2021/01/21 13:11:21;;;;;;;4.80;3.23;;;;;;;;;;733883;188;1020249;-69
2021/01/21 13:13:47;;;;;;;8.07;4.03;;;;;;;;;;735187;188;919715;-69
2021/01/21 13:16:13;;;;;;;6.43;3.90;;;;;;;;;;741829;188;919412;-68
2021/01/21 13:18:38;;;;;;;4.13;3.10;;;;;;;;;;710876;192;955798;-69
2021/01/21 13:21:04;;;;;;;7.77;3.57;;;;;;;;;;721162;192;919101;-69
2021/01/21 13:23:32;;;;;;;8.40;4.43;;;;;;;;;;721612;192;935184;-69
2021/01/21 13:25:56;;;;;;;8.10;4.03;;;;;;;;;;720167;193;919254;-69
2021/01/21 13:28:22;;;;;;;9.30;3.83;;;;;;;;;;735812;187;918829;-69
2021/01/21 13:30:48;;;;;;;6.80;4.40;;;;;;;;;;736875;188;919025;-70
2021/01/21 13:33:13;;;;;;;7.63;4.40;;;;;;;;;;740887;188;910754;-69
2021/01/21 13:35:39;;;;;;;5.70;3.40;;;;;;;;;;737035;188;915673;-69
2021/01/21 13:38:05;;;;;;;8.57;4.50;;;;;;;;;;732769;187;919169;-69
2021/01/21 13:40:31;;;;;;;10.53;4.73;;;;;;;;;;740561;188;919111;-69
2021/01/21 13:42:58;;;;;;;5.83;3.70;;;;;;;;;;719767;191;919555;-70
2021/01/21 13:45:25;;;;;;;7.30;4.47;;;;;;;;;;723862;192;921858;-69
2021/01/21 13:47:50;;;;;;;11.67;5.27;;;;;;;;;;718070;187;816796;-70
2021/01/21 13:50:16;;;;;;;6.17;4.30;;;;;;;;;;717306;194;919591;-70
2021/01/21 13:52:42;;;;;;;12.60;4.60;;;;;;;;;;724143;189;918829;-70
2021/01/21 13:55:08;;;;;;;9.65;6.05;;;;;;;;;;720231;190;992464;-70
2021/01/21 13:57:34;;;;;;;6.60;4.63;;;;;;;;;;721498;193;934800;-70
2021/01/21 13:59:59;;;;;;;5.13;3.90;;;;;;;;;;718328;193;919037;-70
2021/01/21 14:02:25;;;;;;;6.28;4.15;;;;;;;;;;722312;193;918657;-70
2021/01/21 14:04:51;;;;;;;16.37;5.20;;;;;;;;;;720859;193;918990;-70
2021/01/21 14:07:17;;;;;;;10.10;5.60;;;;;;;;;;701092;197;919495;-71
2021/01/21 14:09:43;;;;;;;7.60;3.70;;;;;;;;;;703720;198;919390;-70
2021/01/21 14:12:09;;;;;;;7.80;3.97;;;;;;;;;;708127;193;919628;-70
2021/01/21 14:14:35;;;;;;;6.50;4.30;;;;;;;;;;713487;193;2773596;-70